createdAt,value
2018-07-02T00:00:06.610Z,46.00
2018-07-02T00:02:40.894Z,46.20
2018-07-02T00:05:15.082Z,46.40
2018-07-02T00:10:23.219Z,47.00
2018-07-02T00:12:57.454Z,47.20
2018-07-02T00:15:31.790Z,47.50
2018-07-02T00:18:06.091Z,47.90
2018-07-02T00:20:40.300Z,47.80
2018-07-02T00:23:14.588Z,47.70
2018-07-02T00:25:48.834Z,47.90
2018-07-02T00:28:23.042Z,48.10
2018-07-02T00:33:31.358Z,48.30
2018-07-02T00:38:40.024Z,48.40
2018-07-02T00:41:14.216Z,48.60
2018-07-02T00:43:48.523Z,49.00
2018-07-02T00:46:22.794Z,49.00
2018-07-02T00:48:57.022Z,49.20
2018-07-02T00:51:31.202Z,49.20
2018-07-02T00:54:05.423Z,49.20
2018-07-02T00:56:39.709Z,49.70
2018-07-02T00:59:13.993Z,49.70
2018-07-02T01:01:48.319Z,49.90
2018-07-02T01:04:22.485Z,49.90
2018-07-02T01:06:56.765Z,50.70
2018-07-02T01:09:31.089Z,50.20
2018-07-02T01:12:05.590Z,50.60
2018-07-02T01:14:40.030Z,50.60
2018-07-02T01:17:14.446Z,50.70
2018-07-02T01:19:48.686Z,51.10
2018-07-02T01:24:56.962Z,51.40
2018-07-02T01:27:33.916Z,51.50
2018-07-02T01:30:08.054Z,51.70
2018-07-02T01:32:42.329Z,51.90
2018-07-02T01:35:16.506Z,51.80
2018-07-02T01:37:50.801Z,51.90
2018-07-02T01:40:25.212Z,51.90
2018-07-02T01:42:59.438Z,52.00
2018-07-02T01:48:07.826Z,52.30
2018-07-02T01:50:42.122Z,52.50
2018-07-02T01:53:16.314Z,52.60
2018-07-02T01:55:50.973Z,53.20
2018-07-02T01:58:25.290Z,53.20
2018-07-02T02:00:59.566Z,53.20
2018-07-02T02:03:33.813Z,53.40
2018-07-02T02:06:08.031Z,53.40
2018-07-02T02:08:42.333Z,53.50
2018-07-02T02:11:16.664Z,53.70
2018-07-02T02:13:51.255Z,53.90
2018-07-02T02:16:25.442Z,54.10
2018-07-02T02:18:59.773Z,54.10
2018-07-02T02:21:34.166Z,54.20
2018-07-02T02:24:08.419Z,54.20
2018-07-02T02:26:42.668Z,54.90
2018-07-02T02:29:17.013Z,54.20
2018-07-02T02:31:51.378Z,54.70
2018-07-02T02:34:25.694Z,54.50
2018-07-02T02:39:33.962Z,55.20
2018-07-02T02:42:08.129Z,54.90
2018-07-02T02:44:42.322Z,54.90
2018-07-02T02:47:16.686Z,54.90
2018-07-02T02:49:51.098Z,54.90
2018-07-02T02:54:59.682Z,55.20
2018-07-02T02:57:33.826Z,55.50
2018-07-02T03:00:08.278Z,55.50
2018-07-02T03:02:42.629Z,55.90
2018-07-02T03:05:16.966Z,56.10
2018-07-02T03:07:51.247Z,56.30
2018-07-02T03:10:25.494Z,56.40
2018-07-02T03:12:59.847Z,56.30
2018-07-02T03:15:34.049Z,56.40
2018-07-02T03:20:42.614Z,56.10
2018-07-02T03:23:16.913Z,56.40
2018-07-02T03:25:51.155Z,56.70
2018-07-02T03:28:25.434Z,56.20
2018-07-02T03:30:59.887Z,56.30
2018-07-02T03:33:34.542Z,56.40
2018-07-02T03:36:09.010Z,56.60
2018-07-02T03:38:43.162Z,56.20
2018-07-02T03:41:17.446Z,56.50
2018-07-02T03:43:51.669Z,56.60
2018-07-02T03:46:25.977Z,57.20
2018-07-02T03:49:00.341Z,57.20
2018-07-02T03:51:34.651Z,57.30
2018-07-02T03:54:08.880Z,57.90
2018-07-02T03:56:43.290Z,57.80
2018-07-02T04:01:51.606Z,58.30
2018-07-02T04:04:25.878Z,58.20
2018-07-02T04:07:00.282Z,58.10
2018-07-02T04:09:34.442Z,57.70
2018-07-02T04:12:08.766Z,57.70
2018-07-02T04:14:42.990Z,57.50
2018-07-02T04:17:17.195Z,57.40
2018-07-02T04:19:51.390Z,57.60
2018-07-02T04:22:25.526Z,58.10
2018-07-02T04:24:59.810Z,57.80
2018-07-02T04:27:34.141Z,57.20
2018-07-02T04:30:08.471Z,57.30
2018-07-02T04:32:42.836Z,57.70
2018-07-02T04:35:17.101Z,57.60
2018-07-02T04:37:51.530Z,57.80
2018-07-02T04:40:25.889Z,57.80
2018-07-02T04:43:00.438Z,57.90
2018-07-02T04:45:34.611Z,57.90
2018-07-02T04:48:08.908Z,57.80
2018-07-02T04:53:17.130Z,57.40
2018-07-02T04:55:51.431Z,57.40
2018-07-02T04:58:25.796Z,57.30
2018-07-02T05:01:00.028Z,57.30
2018-07-02T05:03:34.366Z,57.40
2018-07-02T05:06:09.057Z,57.30
2018-07-02T05:08:43.324Z,57.40
2018-07-02T05:11:17.445Z,57.40
2018-07-02T05:13:51.917Z,57.20
2018-07-02T05:16:26.182Z,57.50
2018-07-02T05:19:00.562Z,57.30
2018-07-02T05:21:34.864Z,56.90
2018-07-02T05:24:09.133Z,57.50
2018-07-02T05:26:43.545Z,56.90
2018-07-02T05:29:17.761Z,56.80
2018-07-02T05:34:26.151Z,56.20
2018-07-02T05:37:00.355Z,56.10
2018-07-02T05:39:34.609Z,56.30
2018-07-02T05:42:08.788Z,56.20
2018-07-02T05:44:43.146Z,56.30
2018-07-02T05:47:17.332Z,56.00
2018-07-02T05:49:51.642Z,55.80
2018-07-02T05:52:26.038Z,55.70
2018-07-02T05:55:00.441Z,56.00
2018-07-02T05:57:34.750Z,55.70
2018-07-02T06:00:09.628Z,55.60
2018-07-02T06:02:43.696Z,55.50
2018-07-02T06:05:17.989Z,55.70
2018-07-02T06:07:52.400Z,55.60
2018-07-02T06:10:26.602Z,54.70
2018-07-02T06:13:00.786Z,54.70
2018-07-02T06:15:35.249Z,54.90
2018-07-02T06:20:43.486Z,55.20
2018-07-02T06:23:17.738Z,54.50
2018-07-02T06:25:52.114Z,54.80
2018-07-02T06:28:26.374Z,54.70
2018-07-02T06:31:00.759Z,54.30
2018-07-02T06:36:09.295Z,54.30
2018-07-02T06:38:43.584Z,54.50
2018-07-02T06:41:17.975Z,54.30
2018-07-02T06:43:52.166Z,54.70
2018-07-02T06:46:26.542Z,54.90
2018-07-02T06:49:01.255Z,54.90
2018-07-02T06:51:35.595Z,54.50
2018-07-02T06:54:09.856Z,54.20
2018-07-02T06:56:44.220Z,54.20
2018-07-02T06:59:18.489Z,53.70
2018-07-02T07:01:52.739Z,54.00
2018-07-02T07:04:27.046Z,53.80
2018-07-02T07:07:01.255Z,53.10
2018-07-02T07:09:35.479Z,53.40
2018-07-02T07:12:09.695Z,52.90
2018-07-02T07:17:17.938Z,52.50
2018-07-02T07:19:52.222Z,52.50
2018-07-02T07:22:26.546Z,52.40
2018-07-02T07:25:00.883Z,51.80
2018-07-02T07:30:09.491Z,51.50
2018-07-02T07:32:43.751Z,51.70
2018-07-02T07:35:18.110Z,51.00
2018-07-02T07:37:52.404Z,50.70
2018-07-02T07:40:26.690Z,50.50
2018-07-02T07:43:00.906Z,50.30
2018-07-02T07:45:35.063Z,50.30
2018-07-02T07:48:09.416Z,50.80
2018-07-02T07:50:44.062Z,51.40
2018-07-02T07:53:18.302Z,50.40
2018-07-02T07:55:52.395Z,51.00
2018-07-02T07:58:26.914Z,50.50
2018-07-02T08:01:01.239Z,50.50
2018-07-02T08:03:35.672Z,50.10
2018-07-02T08:06:09.862Z,50.40
2018-07-02T08:08:44.061Z,50.00
2018-07-02T08:11:18.423Z,50.50
2018-07-02T08:13:53.514Z,49.80
2018-07-02T08:16:27.675Z,49.80
2018-07-02T08:19:02.066Z,49.20
2018-07-02T08:21:36.287Z,49.50
2018-07-02T08:24:10.786Z,49.70
2018-07-02T08:26:45.176Z,48.70
2018-07-02T08:29:19.514Z,48.10
2018-07-02T08:31:53.656Z,49.10
2018-07-02T08:34:27.955Z,48.40
2018-07-02T08:37:02.252Z,48.40
2018-07-02T08:39:36.510Z,47.60
2018-07-02T08:42:10.693Z,48.30
2018-07-02T08:44:45.022Z,47.80
2018-07-02T08:47:19.319Z,47.70
2018-07-02T08:49:53.634Z,47.00
2018-07-02T08:52:27.850Z,47.70
2018-07-02T08:55:02.342Z,46.40
2018-07-02T08:57:36.558Z,46.20
2018-07-02T09:02:45.063Z,46.50
2018-07-02T09:05:19.313Z,45.90
2018-07-02T09:07:53.678Z,45.70
2018-07-02T09:10:27.982Z,44.60
2018-07-02T09:13:02.254Z,44.20
2018-07-02T09:15:36.662Z,41.30
2018-07-02T09:18:10.947Z,43.20
2018-07-02T09:20:45.195Z,42.60
2018-07-02T09:23:19.449Z,41.00
2018-07-02T09:25:53.837Z,40.70
2018-07-02T09:28:28.154Z,40.30
2018-07-02T09:31:02.409Z,40.30
2018-07-02T09:33:36.678Z,39.90
2018-07-02T09:36:10.962Z,41.60
2018-07-02T09:38:45.433Z,41.20
2018-07-02T09:41:19.702Z,39.80
2018-07-02T09:43:54.372Z,39.10
2018-07-02T09:46:28.569Z,39.00
2018-07-02T09:49:03.209Z,38.10
2018-07-02T09:51:37.522Z,36.90
2018-07-02T09:54:12.174Z,37.20
2018-07-02T09:56:46.406Z,36.80
2018-07-02T09:59:20.658Z,36.30
2018-07-02T10:01:54.987Z,36.10
2018-07-02T10:04:29.174Z,36.60
2018-07-02T10:07:03.426Z,34.40
2018-07-02T10:09:37.732Z,34.10
2018-07-02T10:12:11.907Z,30.20
2018-07-02T10:14:46.142Z,29.90
2018-07-02T10:17:20.434Z,32.60
2018-07-02T10:19:54.702Z,34.50
2018-07-02T10:22:28.818Z,36.30
2018-07-02T10:25:03.119Z,35.30
2018-07-02T10:27:37.391Z,34.40
2018-07-02T10:30:12.354Z,33.80
2018-07-02T10:32:46.539Z,33.00
2018-07-02T10:35:20.798Z,32.90
2018-07-02T10:37:55.141Z,32.70
2018-07-02T10:40:29.482Z,31.20
2018-07-02T10:43:03.724Z,30.20
2018-07-02T10:45:38.090Z,28.70
2018-07-02T10:48:12.334Z,29.30
2018-07-02T10:50:46.746Z,28.70
2018-07-02T10:53:20.945Z,29.50
2018-07-02T10:55:55.231Z,29.10
2018-07-02T10:58:29.499Z,27.30
2018-07-02T11:01:03.815Z,28.80
2018-07-02T11:03:38.085Z,28.60
2018-07-02T11:06:12.325Z,28.60
2018-07-02T11:08:46.590Z,27.80
2018-07-02T11:11:20.918Z,28.90
2018-07-02T11:13:55.374Z,29.30
2018-07-02T11:16:29.678Z,28.00
2018-07-02T11:19:03.995Z,27.00
2018-07-02T11:21:38.295Z,27.30
2018-07-02T11:24:13.075Z,27.40
2018-07-02T11:26:47.466Z,27.00
2018-07-02T11:29:21.646Z,26.70
2018-07-02T11:31:55.922Z,26.90
2018-07-02T11:34:30.234Z,26.50
2018-07-02T11:37:04.807Z,25.80
2018-07-02T11:39:39.019Z,26.60
2018-07-02T11:42:13.397Z,25.80
2018-07-02T11:44:47.574Z,25.50
2018-07-02T11:47:21.778Z,25.00
2018-07-02T11:49:56.059Z,25.90
2018-07-02T11:52:30.238Z,24.90
2018-07-02T11:55:04.566Z,25.90
2018-07-02T11:57:38.835Z,24.90
2018-07-02T12:00:13.152Z,24.20
2018-07-02T12:02:47.506Z,24.40
2018-07-02T12:05:21.659Z,25.40
2018-07-02T12:07:55.941Z,25.80
2018-07-02T12:10:30.139Z,25.80
2018-07-02T12:13:04.403Z,24.50
2018-07-02T12:15:38.720Z,24.80
2018-07-02T12:18:12.988Z,24.80
2018-07-02T12:20:47.177Z,24.50
2018-07-02T12:23:21.666Z,24.10
2018-07-02T12:25:55.813Z,24.30
2018-07-02T12:28:30.102Z,24.10
2018-07-02T12:31:04.497Z,24.00
2018-07-02T12:33:38.818Z,23.40
2018-07-02T12:36:13.023Z,24.30
2018-07-02T12:38:47.422Z,23.20
2018-07-02T12:41:21.807Z,23.10
2018-07-02T12:43:56.167Z,22.50
2018-07-02T12:46:30.519Z,23.50
2018-07-02T12:49:04.815Z,23.70
2018-07-02T12:51:39.361Z,23.20
2018-07-02T12:54:13.546Z,23.00
2018-07-02T12:56:47.703Z,23.00
2018-07-02T12:59:21.874Z,23.40
2018-07-02T13:01:56.222Z,23.30
2018-07-02T13:04:30.530Z,23.90
2018-07-02T13:07:04.965Z,24.40
2018-07-02T13:09:39.323Z,23.50
2018-07-02T13:12:13.558Z,24.00
2018-07-02T13:14:47.890Z,24.00
2018-07-02T13:17:22.118Z,23.30
2018-07-02T13:19:56.543Z,22.60
2018-07-02T13:22:30.742Z,23.30
2018-07-02T13:25:05.042Z,23.40
2018-07-02T13:30:13.319Z,24.00
2018-07-02T13:32:47.715Z,23.40
2018-07-02T13:35:21.877Z,23.70
2018-07-02T13:37:56.374Z,23.70
2018-07-02T13:40:30.687Z,23.10
2018-07-02T13:43:05.023Z,22.80
2018-07-02T13:48:13.794Z,22.20
2018-07-02T13:50:48.012Z,22.80
2018-07-02T13:53:22.214Z,22.20
2018-07-02T13:55:56.535Z,22.90
2018-07-02T13:58:30.877Z,23.40
2018-07-02T14:01:05.154Z,23.00
2018-07-02T14:03:39.441Z,23.00
2018-07-02T14:06:13.682Z,22.60
2018-07-02T14:08:48.027Z,22.60
2018-07-02T14:11:22.323Z,22.80
2018-07-02T14:13:56.770Z,22.80
2018-07-02T14:16:31.038Z,23.00
2018-07-02T14:19:05.862Z,23.20
2018-07-02T14:21:40.065Z,22.80
2018-07-02T14:24:14.370Z,22.80
2018-07-02T14:26:48.557Z,22.50
2018-07-02T14:29:22.855Z,23.10
2018-07-02T14:31:57.154Z,22.90
2018-07-02T14:34:31.358Z,22.60
2018-07-02T14:37:05.683Z,22.70
2018-07-02T14:39:39.962Z,23.10
2018-07-02T14:44:48.444Z,22.60
2018-07-02T14:47:22.394Z,22.60
2018-07-02T14:49:56.562Z,22.20
2018-07-02T14:52:30.886Z,22.50
2018-07-02T14:55:05.641Z,22.30
2018-07-02T14:57:39.926Z,21.50
2018-07-02T15:00:14.321Z,21.50
2018-07-02T15:02:48.582Z,22.20
2018-07-02T15:07:56.871Z,22.60
2018-07-02T15:10:31.354Z,22.60
2018-07-02T15:13:05.679Z,22.60
2018-07-02T15:15:39.995Z,22.40
2018-07-02T15:18:14.649Z,22.80
2018-07-02T15:20:48.934Z,22.60
2018-07-02T15:23:23.206Z,22.20
2018-07-02T15:25:57.483Z,22.70
2018-07-02T15:28:31.914Z,21.60
2018-07-02T15:31:06.450Z,22.30
2018-07-02T15:33:40.810Z,22.50
2018-07-02T15:36:15.159Z,22.80
2018-07-02T15:38:49.350Z,21.90
2018-07-02T15:41:23.750Z,21.80
2018-07-02T15:43:58.040Z,22.70
2018-07-02T15:46:32.290Z,22.80
2018-07-02T15:49:06.818Z,22.50
2018-07-02T15:51:41.167Z,22.80
2018-07-02T15:54:15.485Z,23.00
2018-07-02T15:56:49.773Z,22.80
2018-07-02T15:59:24.056Z,23.00
2018-07-02T16:01:58.311Z,22.40
2018-07-02T16:04:32.561Z,23.10
2018-07-02T16:07:06.754Z,22.80
2018-07-02T16:09:41.014Z,23.30
2018-07-02T16:12:15.622Z,23.10
2018-07-02T16:14:49.814Z,22.80
2018-07-02T16:19:58.097Z,22.70
2018-07-02T16:22:32.418Z,23.40
2018-07-02T16:25:06.725Z,23.00
2018-07-02T16:27:40.901Z,23.60
2018-07-02T16:30:15.222Z,23.70
2018-07-02T16:32:49.666Z,23.40
2018-07-02T16:35:24.078Z,23.90
2018-07-02T16:37:58.306Z,23.30
2018-07-02T16:40:32.575Z,23.20
2018-07-02T16:43:06.819Z,23.10
2018-07-02T16:45:41.158Z,24.10
2018-07-02T16:48:15.414Z,23.50
2018-07-02T16:50:49.770Z,23.70
2018-07-02T16:53:24.176Z,23.70
2018-07-02T16:55:58.630Z,23.30
2018-07-02T16:58:32.766Z,23.60
2018-07-02T17:01:07.117Z,23.30
2018-07-02T17:03:41.306Z,23.70
2018-07-02T17:06:15.583Z,23.80
2018-07-02T17:08:49.998Z,23.60
2018-07-02T17:11:24.199Z,23.70
2018-07-02T17:13:58.428Z,24.40
2018-07-02T17:16:32.745Z,23.90
2018-07-02T17:19:07.014Z,24.00
2018-07-02T17:21:41.311Z,23.90
2018-07-02T17:24:15.660Z,24.70
2018-07-02T17:26:49.887Z,23.70
2018-07-02T17:29:24.154Z,23.40
2018-07-02T17:31:58.747Z,23.90
2018-07-02T17:34:33.551Z,24.30
2018-07-02T17:37:07.848Z,24.00
2018-07-02T17:39:42.245Z,24.80
2018-07-02T17:42:16.670Z,24.10
2018-07-02T17:44:50.853Z,24.10
2018-07-02T17:47:25.176Z,24.80
2018-07-02T17:49:59.305Z,24.40
2018-07-02T17:52:33.638Z,23.90
2018-07-02T17:55:07.972Z,24.50
2018-07-02T17:57:42.359Z,24.80
2018-07-02T18:00:16.577Z,24.90
2018-07-02T18:02:51.301Z,24.60
2018-07-02T18:05:25.608Z,25.30
2018-07-02T18:07:59.890Z,25.10
2018-07-02T18:10:34.140Z,25.10
2018-07-02T18:13:08.466Z,25.10
2018-07-02T18:15:42.712Z,25.30
2018-07-02T18:18:16.978Z,25.40
2018-07-02T18:20:51.343Z,25.00
2018-07-02T18:25:59.646Z,26.30
2018-07-02T18:28:34.030Z,26.50
2018-07-02T18:31:08.441Z,26.40
2018-07-02T18:33:42.682Z,26.30
2018-07-02T18:36:16.966Z,27.30
2018-07-02T18:38:51.242Z,27.10
2018-07-02T18:41:25.554Z,27.80
2018-07-02T18:43:59.858Z,27.50
2018-07-02T18:46:34.158Z,27.60
2018-07-02T18:49:08.368Z,27.90
2018-07-02T18:51:42.678Z,28.00
2018-07-02T18:54:16.914Z,28.30
2018-07-02T18:56:51.338Z,28.70
2018-07-02T18:59:25.578Z,28.80
2018-07-02T19:01:59.874Z,29.80
2018-07-02T19:04:34.186Z,29.90
2018-07-02T19:07:08.522Z,31.20
2018-07-02T19:09:42.690Z,31.60
2018-07-02T19:12:16.982Z,31.30
2018-07-02T19:14:51.312Z,33.00
2018-07-02T19:17:25.695Z,33.00
2018-07-02T19:20:00.070Z,33.60
2018-07-02T19:22:34.357Z,33.70
2018-07-02T19:25:08.843Z,34.10
2018-07-02T19:27:43.226Z,34.40
2018-07-02T19:30:17.441Z,35.00
2018-07-02T19:32:51.742Z,35.30
2018-07-02T19:35:25.974Z,35.60
2018-07-02T19:38:00.195Z,36.80
2018-07-02T19:40:34.494Z,37.10
2018-07-02T19:43:08.710Z,36.10
2018-07-02T19:45:42.874Z,36.40
2018-07-02T19:48:17.087Z,37.40
2018-07-02T19:50:51.317Z,38.00
2018-07-02T19:53:25.668Z,39.00
2018-07-02T19:55:59.933Z,38.90
2018-07-02T19:58:34.221Z,39.30
2018-07-02T20:01:08.458Z,38.80
2018-07-02T20:03:42.583Z,39.80
2018-07-02T20:06:16.849Z,39.60
2018-07-02T20:08:51.186Z,40.30
2018-07-02T20:11:25.755Z,39.90
2018-07-02T20:14:00.094Z,40.50
2018-07-02T20:16:34.435Z,42.00
2018-07-02T20:19:08.914Z,41.20
2018-07-02T20:21:43.152Z,43.30
2018-07-02T20:24:17.382Z,44.10
2018-07-02T20:26:51.892Z,43.70
2018-07-02T20:29:26.136Z,44.40
2018-07-02T20:32:00.327Z,44.00
2018-07-02T20:34:34.666Z,43.80
2018-07-02T20:37:08.978Z,44.40
2018-07-02T20:39:43.233Z,42.90
2018-07-02T20:42:17.496Z,42.90
2018-07-02T20:44:51.815Z,43.70
2018-07-02T20:47:26.063Z,44.30
2018-07-02T20:50:00.467Z,45.10
2018-07-02T20:52:34.734Z,43.90
2018-07-02T20:55:09.005Z,48.70
2018-07-02T20:57:43.287Z,47.40
2018-07-02T21:00:17.490Z,47.00
2018-07-02T21:05:25.850Z,47.90
2018-07-02T21:08:00.326Z,47.50
2018-07-02T21:10:34.582Z,47.30
2018-07-02T21:13:08.871Z,48.10
2018-07-02T21:15:43.169Z,48.20
2018-07-02T21:18:17.406Z,48.30
2018-07-02T21:20:51.626Z,48.50
2018-07-02T21:23:25.958Z,48.40
2018-07-02T21:26:00.218Z,49.10
2018-07-02T21:28:34.633Z,49.20
2018-07-02T21:31:08.975Z,48.80
2018-07-02T21:33:43.122Z,47.80
2018-07-02T21:36:17.426Z,46.10
2018-07-02T21:38:51.795Z,44.50
2018-07-02T21:41:26.063Z,44.40
2018-07-02T21:44:00.403Z,44.70
2018-07-02T21:46:34.625Z,44.50
2018-07-02T21:49:08.910Z,43.70
2018-07-02T21:51:43.208Z,43.50
2018-07-02T21:54:17.489Z,43.70
2018-07-02T21:56:51.817Z,43.70
2018-07-02T21:59:26.075Z,44.10
2018-07-02T22:02:00.342Z,44.10
2018-07-02T22:04:34.630Z,44.50
2018-07-02T22:07:08.926Z,44.20
2018-07-02T22:09:43.235Z,45.20
2018-07-02T22:12:17.530Z,45.70
2018-07-02T22:14:51.842Z,45.80
2018-07-02T22:17:26.207Z,46.70
2018-07-02T22:20:00.522Z,46.60
2018-07-02T22:22:34.825Z,47.10
2018-07-02T22:25:09.106Z,47.30
2018-07-02T22:30:17.421Z,47.50
2018-07-02T22:32:51.721Z,48.10
2018-07-02T22:35:26.079Z,48.30
2018-07-02T22:38:00.370Z,48.60
2018-07-02T22:40:34.690Z,48.40
2018-07-02T22:43:08.953Z,48.80
2018-07-02T22:45:43.393Z,49.00
2018-07-02T22:48:17.558Z,49.10
2018-07-02T22:50:51.820Z,49.40
2018-07-02T22:53:25.970Z,50.00
2018-07-02T22:56:03.026Z,50.80
2018-07-02T22:58:37.285Z,50.80
2018-07-02T23:01:11.562Z,51.00
2018-07-02T23:03:45.842Z,51.40
2018-07-02T23:06:20.026Z,51.40
2018-07-02T23:08:54.299Z,51.90
2018-07-02T23:11:28.538Z,52.40
2018-07-02T23:14:02.834Z,52.30
2018-07-02T23:16:37.145Z,52.40
2018-07-02T23:19:11.406Z,52.90
2018-07-02T23:21:45.742Z,53.20
2018-07-02T23:24:20.019Z,53.80
2018-07-02T23:26:54.298Z,53.70
2018-07-02T23:29:28.614Z,54.00
2018-07-02T23:32:02.794Z,54.50
2018-07-02T23:34:37.070Z,54.80
2018-07-02T23:37:11.251Z,55.20
2018-07-02T23:39:45.526Z,55.20
2018-07-02T23:42:19.840Z,55.80
2018-07-02T23:44:54.286Z,56.10
2018-07-02T23:47:28.567Z,56.40
2018-07-02T23:50:02.878Z,56.90
2018-07-02T23:52:37.151Z,57.40
2018-07-02T23:55:11.710Z,57.80
2018-07-02T23:57:46.010Z,58.10
